Time;durP1;ratioP1;P1;durP2;ratioP2;P2;SDS_P1;SDS_P2;PMS_P1;PMS_P2;Temp;Humidity;BMP_temperature;BMP_pressure;BME280_temperature;BME280_humidity;BME280_pressure;Samples;Min_cycle;Max_cycle;Signal;HPM_P1;HPM_P2
2023/09/19 00:02:19;;;;;;;2.08;1.40;;;;;;;17.09;86.46;100060.38;7394551;19;20010;-70
2023/09/19 00:04:48;;;;;;;5.85;2.33;;;;;;;17.09;86.29;100063.03;7393953;19;20019;-69
2023/09/19 00:07:17;;;;;;;4.05;1.50;;;;;;;17.07;86.38;100060.47;7394953;19;20011;-69
2023/09/19 00:09:46;;;;;;;3.97;2.13;;;;;;;17.07;86.38;100056.97;7395118;19;20017;-70
2023/09/19 00:12:15;;;;;;;2.53;1.50;;;;;;;17.06;86.30;100050.81;7395112;19;20377;-69
2023/09/19 00:14:46;;;;;;;2.10;1.67;;;;;;;17.05;86.25;100057.06;7393650;19;20014;-72
2023/09/19 00:17:15;;;;;;;6.03;1.90;;;;;;;17.05;86.20;100054.41;7395642;19;20070;-69
2023/09/19 00:19:46;;;;;;;3.65;1.80;;;;;;;17.03;86.59;100060.75;7394920;19;20013;-70
2023/09/19 00:22:15;;;;;;;3.25;1.45;;;;;;;17.01;86.26;100058.19;7395570;19;20014;-69
2023/09/19 00:24:44;;;;;;;2.08;1.30;;;;;;;17.00;86.16;100061.78;7392982;19;20034;-69
2023/09/19 00:27:12;;;;;;;4.95;1.67;;;;;;;17.00;86.33;100060.94;7394431;19;20011;-69
2023/09/19 00:29:41;;;;;;;3.47;1.60;;;;;;;16.99;86.45;100059.22;7394940;19;20011;-69
2023/09/19 00:32:12;;;;;;;5.78;1.65;;;;;;;16.98;86.60;100063.66;7392750;19;20052;-69
2023/09/19 00:34:47;;;;;;;5.28;1.70;;;;;;;16.98;86.21;100057.53;7392790;19;20074;-69
2023/09/19 00:37:17;;;;;;;3.22;1.90;;;;;;;16.97;86.39;100056.66;7394413;19;20078;-69
2023/09/19 00:39:46;;;;;;;3.55;1.88;;;;;;;16.98;86.04;100058.38;7394359;19;20066;-69
2023/09/19 00:42:21;;;;;;;4.65;1.63;;;;;;;16.98;86.52;100058.38;7394687;19;20018;-69
2023/09/19 00:44:51;;;;;;;5.03;2.00;;;;;;;16.98;86.17;100055.72;7392382;19;20477;-68
2023/09/19 00:47:22;;;;;;;2.97;1.50;;;;;;;16.97;86.46;100064.59;7393458;19;20010;-69
2023/09/19 00:49:52;;;;;;;3.15;1.55;;;;;;;16.98;85.96;100063.66;7394934;19;20010;-70
2023/09/19 00:52:23;;;;;;;2.72;1.98;;;;;;;16.97;86.27;100061.94;7394772;19;20082;-69
2023/09/19 00:54:52;;;;;;;4.63;1.60;;;;;;;16.96;86.31;100062.91;7392338;19;20014;-68
2023/09/19 00:57:22;;;;;;;3.92;1.75;;;;;;;16.94;86.08;100059.50;7397428;19;20014;-70
2023/09/19 00:59:53;;;;;;;3.10;1.40;;;;;;;16.93;85.91;100053.34;7398988;19;20017;-70
2023/09/19 01:02:24;;;;;;;6.03;1.60;;;;;;;16.92;85.97;100050.78;7401286;19;20066;-69
2023/09/19 01:04:53;;;;;;;4.15;1.77;;;;;;;16.92;86.21;100054.28;7398477;19;20490;-69
2023/09/19 01:07:22;;;;;;;5.72;2.47;;;;;;;16.93;86.39;100060.44;7400690;19;20387;-69
2023/09/19 01:09:52;;;;;;;3.10;1.80;;;;;;;16.92;86.04;100061.38;7401431;19;20420;-70
2023/09/19 01:12:40;;;;;;;3.25;1.58;;;;;;;16.91;86.30;100065.00;7401333;19;20006;-69
2023/09/19 01:15:18;;;;;;;2.60;1.63;;;;;;;16.90;86.26;100061.44;7401785;19;20010;-69
2023/09/19 01:17:55;;;;;;;2.28;1.50;;;;;;;16.90;86.08;100055.31;7401713;19;20019;-69
2023/09/19 01:20:40;;;;;;;3.63;1.67;;;;;;;16.92;86.52;100066.66;7401497;19;20082;-70
2023/09/19 01:23:18;;;;;;;3.50;1.70;;;;;;;16.91;86.15;100068.47;7400507;19;20014;-70
2023/09/19 01:26:09;;;;;;;4.00;1.63;;;;;;;16.91;86.55;100076.44;7401020;19;20419;-70
2023/09/19 01:28:58;;;;;;;2.97;1.88;;;;;;;16.91;86.20;100073.78;7398908;19;20018;-69
2023/09/19 01:31:35;;;;;;;6.60;2.30;;;;;;;16.92;86.18;100072.84;7399754;19;20090;-70
2023/09/19 01:34:07;;;;;;;2.55;1.52;;;;;;;16.93;86.12;100076.34;7398483;19;20015;-69
2023/09/19 01:36:38;;;;;;;5.18;1.92;;;;;;;16.94;86.38;100078.03;7400158;19;20509;-70
2023/09/19 01:39:10;;;;;;;4.13;1.85;;;;;;;16.93;86.54;100077.22;7400892;19;20006;-70
2023/09/19 01:42:00;;;;;;;2.95;1.42;;;;;;;16.96;86.30;100085.91;7400077;19;20066;-69
2023/09/19 01:44:34;;;;;;;2.92;1.27;;;;;;;16.96;86.54;100073.53;7397691;19;20031;-70
2023/09/19 01:47:16;;;;;;;4.25;2.17;;;;;;;16.96;86.29;100078.81;7398054;19;20024;-69
2023/09/19 01:49:53;;;;;;;3.10;2.25;;;;;;;16.95;86.30;100071.81;7401262;19;20018;-70
2023/09/19 01:52:25;;;;;;;4.10;1.95;;;;;;;16.93;86.57;100079.84;7403271;19;20014;-71
2023/09/19 01:54:55;;;;;;;3.75;2.05;;;;;;;16.94;86.53;100089.47;7401579;19;20011;-70
2023/09/19 01:57:32;;;;;;;3.65;1.70;;;;;;;16.95;86.25;100095.66;7398692;19;20022;-69
2023/09/19 02:00:08;;;;;;;3.22;1.95;;;;;;;16.93;86.53;100097.53;7399460;19;20010;-70
2023/09/19 02:02:42;;;;;;;4.82;1.80;;;;;;;16.90;86.69;100093.22;7399637;19;20078;-70
2023/09/19 02:05:11;;;;;;;6.82;1.73;;;;;;;16.90;86.49;100097.69;7399302;19;20422;-69
2023/09/19 02:07:41;;;;;;;7.47;2.05;;;;;;;16.87;86.47;100089.91;7398295;19;20011;-69
2023/09/19 02:10:12;;;;;;;4.22;2.00;;;;;;;16.85;86.67;100105.91;7397717;19;20010;-69
2023/09/19 02:12:40;;;;;;;5.32;1.90;;;;;;;16.83;86.79;100106.94;7399495;19;20026;-69
2023/09/19 02:15:10;;;;;;;1.90;1.42;;;;;;;16.80;86.80;100101.81;7399370;19;20138;-69
2023/09/19 02:17:41;;;;;;;3.17;1.40;;;;;;;16.77;87.12;100114.28;7398539;19;20428;-70
2023/09/19 02:20:14;;;;;;;3.75;1.60;;;;;;;16.73;86.89;100103.94;7400391;19;20006;-69
2023/09/19 02:22:44;;;;;;;3.20;1.77;;;;;;;16.70;87.27;100104.97;7397053;19;20019;-69
2023/09/19 02:25:13;;;;;;;3.47;1.95;;;;;;;16.67;87.33;100107.81;7398936;19;20018;-69
2023/09/19 02:27:42;;;;;;;2.42;1.70;;;;;;;16.65;87.13;100116.78;7397810;19;20082;-69
2023/09/19 02:30:11;;;;;;;5.63;1.92;;;;;;;16.62;87.57;100107.22;7398904;19;20069;-69
2023/09/19 02:32:43;;;;;;;2.75;1.75;;;;;;;16.59;87.67;100118.84;7395992;19;20015;-70
2023/09/19 02:35:14;;;;;;;2.58;2.03;;;;;;;16.57;87.67;100115.44;7396361;19;20018;-69
2023/09/19 02:37:43;;;;;;;2.85;1.88;;;;;;;16.55;87.90;100121.75;7396196;19;20034;-69
2023/09/19 02:40:18;;;;;;;3.58;1.67;;;;;;;16.53;87.93;100127.16;7397754;19;20010;-69
2023/09/19 02:42:49;;;;;;;7.40;2.25;;;;;;;16.50;87.96;100126.47;7398146;19;20018;-69
2023/09/19 02:45:20;;;;;;;5.60;2.10;;;;;;;16.48;87.98;100128.34;7397934;19;20011;-69
2023/09/19 02:47:51;;;;;;;2.72;1.77;;;;;;;16.46;88.33;100131.06;7397446;19;20027;-70
2023/09/19 02:50:20;;;;;;;5.47;2.35;;;;;;;16.44;88.17;100135.59;7396355;19;20007;-70
2023/09/19 02:52:49;;;;;;;2.38;1.65;;;;;;;16.40;88.56;100132.28;7397185;19;20442;-70
2023/09/19 02:55:21;;;;;;;4.45;1.83;;;;;;;16.38;88.49;100134.16;7397795;19;20023;-69
2023/09/19 02:57:50;;;;;;;3.65;1.83;;;;;;;16.37;88.52;100134.25;7397303;19;20010;-70
2023/09/19 03:00:21;;;;;;;2.72;1.95;;;;;;;16.34;88.97;100137.91;7397325;19;20010;-70
2023/09/19 03:02:53;;;;;;;7.15;1.98;;;;;;;16.32;88.75;100133.66;7397703;19;20359;-70
2023/09/19 03:05:30;;;;;;;3.95;2.03;;;;;;;16.28;89.03;100132.97;7397136;19;20010;-69
2023/09/19 03:08:00;;;;;;;3.72;2.30;;;;;;;16.26;89.15;100138.34;7396709;19;20007;-69
2023/09/19 03:10:30;;;;;;;2.60;2.20;;;;;;;16.25;88.98;100144.56;7397053;19;20022;-69
2023/09/19 03:12:59;;;;;;;5.30;2.30;;;;;;;16.23;89.08;100142.94;7395642;19;20022;-69
2023/09/19 03:15:29;;;;;;;4.05;2.50;;;;;;;16.22;89.42;100141.25;7397133;19;20007;-70
2023/09/19 03:18:00;;;;;;;6.18;2.75;;;;;;;16.20;89.28;100151.91;7397124;19;20018;-70
2023/09/19 03:20:29;;;;;;;3.30;2.30;;;;;;;16.19;89.41;100150.19;7396819;19;20380;-70
2023/09/19 03:22:57;;;;;;;3.22;2.30;;;;;;;16.17;89.45;100141.47;7396763;19;20086;-70
2023/09/19 03:25:26;;;;;;;3.03;1.98;;;;;;;16.15;89.55;100138.09;7396483;19;20411;-70
2023/09/19 03:27:54;;;;;;;5.53;2.05;;;;;;;16.12;89.62;100139.09;7396520;19;20007;-70
2023/09/19 03:30:23;;;;;;;5.80;2.05;;;;;;;16.10;89.83;100138.31;7396325;19;20046;-69
2023/09/19 03:32:52;;;;;;;4.80;2.28;;;;;;;16.09;89.64;100143.69;7394794;19;20015;-69
2023/09/19 03:35:23;;;;;;;5.47;2.30;;;;;;;16.05;89.75;100148.31;7396191;19;20006;-69
2023/09/19 03:37:52;;;;;;;5.60;2.90;;;;;;;16.03;90.05;100155.47;7396874;19;20366;-70
2023/09/19 03:40:21;;;;;;;3.95;2.50;;;;;;;16.01;90.14;100152.06;7394030;19;20010;-70
2023/09/19 03:42:50;;;;;;;5.75;2.22;;;;;;;15.99;89.95;100159.22;7395429;19;20492;-70
2023/09/19 03:45:18;;;;;;;3.35;2.75;;;;;;;15.96;90.19;100165.53;7395473;19;20011;-69
2023/09/19 03:47:47;;;;;;;3.92;2.20;;;;;;;15.94;90.52;100169.19;7395465;19;20059;-68
2023/09/19 03:50:17;;;;;;;4.43;2.63;;;;;;;15.91;90.68;100166.69;7396341;19;20382;-68
2023/09/19 03:52:48;;;;;;;6.82;2.65;;;;;;;15.89;90.65;100163.28;7394291;19;20025;-69
2023/09/19 03:55:16;;;;;;;3.67;2.45;;;;;;;15.83;90.78;100164.47;7396477;19;20023;-69
2023/09/19 03:57:50;;;;;;;6.85;2.75;;;;;;;15.79;91.12;100158.44;7395554;19;20584;-68
2023/09/19 04:00:21;;;;;;;3.97;2.90;;;;;;;15.79;91.21;100174.31;7395943;19;20074;-69
2023/09/19 04:02:50;;;;;;;3.80;2.45;;;;;;;15.76;91.21;100171.84;7396530;19;20047;-69
2023/09/19 04:05:18;;;;;;;6.13;2.67;;;;;;;15.75;91.31;100182.50;7393205;19;20026;-69
2023/09/19 04:07:49;;;;;;;4.38;2.50;;;;;;;15.72;91.26;100186.16;7395282;19;20073;-69
2023/09/19 04:10:18;;;;;;;5.45;2.97;;;;;;;15.70;91.26;100180.09;7395585;19;20010;-69
2023/09/19 04:12:54;;;;;;;3.58;2.80;;;;;;;15.68;91.67;100176.66;7394994;19;20099;-69
2023/09/19 04:15:24;;;;;;;4.85;2.97;;;;;;;15.64;91.65;100178.63;7395521;19;20017;-69
2023/09/19 04:17:52;;;;;;;4.00;2.83;;;;;;;15.64;91.92;100201.56;7394970;19;20010;-68
2023/09/19 04:20:22;;;;;;;5.68;2.60;;;;;;;15.62;91.73;100196.34;7394566;19;20066;-69
2023/09/19 04:22:54;;;;;;;7.18;3.28;;;;;;;15.59;91.77;100201.78;7394222;19;20015;-70
2023/09/19 04:25:23;;;;;;;8.27;3.20;;;;;;;15.58;91.97;100207.16;7394582;19;20006;-69
2023/09/19 04:27:51;;;;;;;8.10;3.38;;;;;;;15.56;92.16;100209.03;7394926;19;20014;-70
2023/09/19 04:30:21;;;;;;;6.97;3.90;;;;;;;15.54;92.11;100205.63;7392664;19;20074;-70
2023/09/19 04:32:50;;;;;;;6.65;3.35;;;;;;;15.50;92.11;100202.28;7397234;19;20015;-70
2023/09/19 04:35:26;;;;;;;5.10;3.03;;;;;;;15.47;92.05;100211.22;7402059;19;20482;-69
2023/09/19 04:37:57;;;;;;;5.50;2.67;;;;;;;15.45;92.18;100218.34;7401721;19;20011;-70
2023/09/19 04:40:26;;;;;;;3.45;3.08;;;;;;;15.44;92.29;100218.44;7398437;19;20069;-69
2023/09/19 04:42:58;;;;;;;4.43;3.30;;;;;;;15.41;92.57;100235.31;7400818;19;20014;-69
2023/09/19 04:45:27;;;;;;;4.53;2.90;;;;;;;15.41;92.67;100237.09;7401398;19;20018;-70
2023/09/19 04:47:56;;;;;;;5.07;2.42;;;;;;;15.37;92.78;100233.75;7401426;19;20027;-70
2023/09/19 04:50:29;;;;;;;5.57;2.97;;;;;;;15.36;92.97;100242.63;7399466;19;20022;-71
2023/09/19 04:53:01;;;;;;;6.75;2.85;;;;;;;15.35;93.03;100248.81;7398868;19;20512;-71
2023/09/19 04:55:32;;;;;;;5.78;3.03;;;;;;;15.33;93.33;100248.06;7402623;19;20034;-71
2023/09/19 04:58:02;;;;;;;3.58;2.47;;;;;;;15.31;93.36;100242.84;7398669;19;20010;-72
2023/09/19 05:00:34;;;;;;;5.55;2.53;;;;;;;15.32;93.39;100249.00;7400887;19;20026;-70
2023/09/19 05:03:04;;;;;;;3.33;2.60;;;;;;;15.28;93.39;100250.94;7399612;19;20131;-71
2023/09/19 05:05:34;;;;;;;3.28;2.10;;;;;;;15.27;93.59;100257.13;7399999;19;20477;-70
2023/09/19 05:08:08;;;;;;;4.47;2.42;;;;;;;15.27;93.20;100257.13;7397859;19;20048;-70
2023/09/19 05:10:38;;;;;;;2.72;2.25;;;;;;;15.30;92.80;100262.28;7400797;19;20042;-70
2023/09/19 05:13:07;;;;;;;3.80;2.20;;;;;;;15.31;92.48;100269.25;7397948;19;20023;-72
2023/09/19 05:15:36;;;;;;;3.67;1.90;;;;;;;15.34;92.18;100272.69;7397251;19;20021;-71
2023/09/19 05:18:06;;;;;;;2.75;1.80;;;;;;;15.37;91.54;100283.13;7400187;19;20026;-68
2023/09/19 05:20:37;;;;;;;3.15;2.00;;;;;;;15.39;90.49;100283.91;7399475;19;20014;-69
2023/09/19 05:23:12;;;;;;;3.85;1.77;;;;;;;15.35;89.80;100271.78;7398090;19;20014;-68
2023/09/19 05:25:43;;;;;;;5.40;1.95;;;;;;;15.41;89.41;100284.69;7398191;19;20074;-69
2023/09/19 05:28:14;;;;;;;4.50;1.65;;;;;;;15.44;88.60;100287.16;7397537;19;20038;-69
2023/09/19 05:30:43;;;;;;;5.45;1.95;;;;;;;15.45;88.00;100291.53;7399838;19;20504;-69
2023/09/19 05:33:12;;;;;;;3.13;1.73;;;;;;;15.46;87.52;100296.72;7397615;19;20018;-70
2023/09/19 05:35:41;;;;;;;4.38;1.50;;;;;;;15.49;86.60;100298.38;7399418;19;20011;-69
2023/09/19 05:38:13;;;;;;;2.72;1.63;;;;;;;15.52;86.40;100300.88;7399607;19;20038;-70
2023/09/19 05:40:42;;;;;;;5.80;1.65;;;;;;;15.52;85.50;100303.53;7399959;19;20095;-70
2023/09/19 05:43:11;;;;;;;1.95;1.65;;;;;;;15.53;84.93;100313.16;7396153;19;20022;-70
2023/09/19 05:45:40;;;;;;;2.65;1.50;;;;;;;15.55;84.25;100313.09;7398897;19;20090;-69
2023/09/19 05:48:15;;;;;;;3.20;1.70;;;;;;;15.57;84.07;100321.78;7399459;19;20073;-69
2023/09/19 05:50:46;;;;;;;4.47;1.60;;;;;;;15.60;83.42;100326.94;7397504;19;20014;-69
2023/09/19 05:53:18;;;;;;;3.55;1.60;;;;;;;15.61;82.78;100326.00;7398650;19;20010;-70
2023/09/19 05:55:47;;;;;;;2.67;1.70;;;;;;;15.67;82.98;100325.69;7399994;19;20019;-70
2023/09/19 05:58:17;;;;;;;2.65;1.40;;;;;;;15.69;82.57;100326.47;7396871;19;20006;-70
2023/09/19 06:00:47;;;;;;;4.53;1.90;;;;;;;15.73;82.33;100335.09;7399176;19;20094;-69
2023/09/19 06:03:17;;;;;;;3.40;1.73;;;;;;;15.75;82.37;100334.09;7396576;19;20018;-70
2023/09/19 06:05:46;;;;;;;4.65;1.67;;;;;;;15.79;81.87;100338.28;7398781;19;20014;-70
2023/09/19 06:08:39;;;;;;;6.90;2.30;;;;;;;15.85;81.24;100341.63;7398617;19;20478;-69
2023/09/19 06:11:09;;;;;;;3.40;1.60;;;;;;;15.86;81.47;100349.47;7399463;19;20078;-69
2023/09/19 06:13:39;;;;;;;6.13;1.63;;;;;;;15.91;81.24;100354.50;7398082;19;20098;-70
2023/09/19 06:16:09;;;;;;;4.05;1.60;;;;;;;15.94;81.33;100349.94;7398941;19;20070;-69
2023/09/19 06:18:37;;;;;;;4.28;1.70;;;;;;;15.98;81.41;100349.78;7399122;19;20086;-70
2023/09/19 06:21:07;;;;;;;4.57;2.08;;;;;;;16.02;80.92;100356.63;7399306;19;20082;-70
2023/09/19 06:23:38;;;;;;;3.75;1.85;;;;;;;16.04;80.95;100352.13;7397433;19;20027;-69
2023/09/19 06:26:13;;;;;;;4.03;1.77;;;;;;;16.07;80.81;100352.81;7397928;19;20502;-69
2023/09/19 06:28:42;;;;;;;2.95;1.83;;;;;;;16.10;80.60;100365.91;7398427;19;20018;-69
2023/09/19 06:31:18;;;;;;;5.60;1.88;;;;;;;16.12;80.56;100364.03;7398140;19;20108;-69
2023/09/19 06:33:46;;;;;;;3.85;1.63;;;;;;;16.17;80.55;100368.22;7396552;19;20038;-69
2023/09/19 06:36:22;;;;;;;4.78;2.25;;;;;;;16.19;80.38;100358.41;7397874;19;20014;-70
2023/09/19 06:38:53;;;;;;;8.02;2.20;;;;;;;16.23;80.74;100368.75;7397316;19;20496;-69
2023/09/19 06:41:24;;;;;;;4.35;2.30;;;;;;;16.23;80.53;100363.47;7398256;19;20010;-69
2023/09/19 06:43:53;;;;;;;3.60;1.88;;;;;;;16.28;81.05;100365.88;7396094;19;20034;-69
2023/09/19 06:46:21;;;;;;;4.97;2.20;;;;;;;16.31;81.49;100373.66;7397239;19;20025;-70
2023/09/19 06:48:52;;;;;;;5.82;2.00;;;;;;;16.32;81.62;100371.88;7397013;19;20027;-69
2023/09/19 06:51:21;;;;;;;3.10;2.08;;;;;;;16.35;81.93;100369.94;7396650;19;20014;-69
2023/09/19 06:53:49;;;;;;;4.30;2.40;;;;;;;16.38;82.43;100379.50;7396327;19;20031;-68
2023/09/19 06:56:24;;;;;;;4.47;2.08;;;;;;;16.40;82.67;100375.84;7396382;19;20074;-70
2023/09/19 06:58:53;;;;;;;3.05;2.10;;;;;;;16.48;82.71;100387.81;7395018;19;20007;-70
2023/09/19 07:01:21;;;;;;;4.63;2.10;;;;;;;16.53;82.72;100388.41;7396718;19;20015;-69
2023/09/19 07:03:50;;;;;;;3.95;1.70;;;;;;;16.58;82.96;100389.91;7394905;19;20503;-68
2023/09/19 07:06:18;;;;;;;6.10;2.03;;;;;;;16.64;82.64;100388.72;7396623;19;20073;-69
2023/09/19 07:08:46;;;;;;;3.67;1.85;;;;;;;16.74;82.92;100391.75;7397096;19;20089;-69
2023/09/19 07:11:15;;;;;;;5.75;2.20;;;;;;;16.84;82.32;100392.13;7396587;19;20478;-69
2023/09/19 07:13:47;;;;;;;2.88;1.77;;;;;;;16.92;81.03;100395.22;7395486;19;20019;-69
2023/09/19 07:16:27;;;;;;;2.60;1.23;;;;;;;17.00;79.99;100400.97;7396622;19;20010;-70
2023/09/19 07:18:56;;;;;;;2.55;1.75;;;;;;;17.09;77.96;100413.72;7394533;19;20484;-69
2023/09/19 07:21:25;;;;;;;4.82;1.83;;;;;;;17.19;76.85;100411.44;7395759;19;20011;-70
2023/09/19 07:23:53;;;;;;;3.42;1.73;;;;;;;17.30;75.10;100404.69;7395030;19;20010;-68
2023/09/19 07:26:22;;;;;;;2.45;1.60;;;;;;;17.41;74.48;100421.72;7396444;19;20077;-68
2023/09/19 07:28:53;;;;;;;3.28;1.70;;;;;;;17.55;73.68;100417.41;7396152;19;20077;-69
2023/09/19 07:31:22;;;;;;;2.10;1.40;;;;;;;17.66;72.49;100425.63;7394593;19;20093;-70
2023/09/19 07:33:51;;;;;;;4.28;1.42;;;;;;;17.75;71.34;100416.28;7394293;19;20371;-70
2023/09/19 07:36:20;;;;;;;5.90;1.42;;;;;;;17.88;67.69;100442.97;7396055;19;20011;-69
2023/09/19 07:38:48;;;;;;;2.90;1.27;;;;;;;17.98;67.57;100433.56;7395561;19;20011;-69
2023/09/19 07:41:17;;;;;;;3.85;1.70;;;;;;;18.05;64.11;100456.16;7395824;19;20014;-69
2023/09/19 07:43:45;;;;;;;4.38;1.50;;;;;;;18.13;65.91;100450.41;7394202;19;20046;-69
2023/09/19 07:46:16;;;;;;;5.47;1.67;;;;;;;18.16;62.94;100444.94;7395700;19;20018;-69
2023/09/19 07:48:48;;;;;;;2.92;1.25;;;;;;;18.21;59.64;100444.66;7395511;19;20416;-70
2023/09/19 07:51:17;;;;;;;3.15;1.48;;;;;;;18.25;61.17;100443.56;7393974;19;20014;-70
2023/09/19 07:53:45;;;;;;;3.65;2.03;;;;;;;18.27;60.20;100457.56;7393501;19;20028;-69
2023/09/19 07:56:14;;;;;;;4.32;1.60;;;;;;;18.31;59.92;100450.28;7392738;19;20015;-68
2023/09/19 07:58:43;;;;;;;5.93;1.50;;;;;;;18.32;57.26;100491.84;7395003;19;20006;-69
2023/09/19 08:01:13;;;;;;;4.75;1.85;;;;;;;18.33;57.52;100467.84;7395136;19;20027;-69
2023/09/19 08:03:45;;;;;;;6.25;1.70;;;;;;;18.33;55.66;100467.84;7394634;19;20017;-68
2023/09/19 08:06:14;;;;;;;3.03;1.70;;;;;;;18.38;57.38;100468.41;7392699;19;20006;-68
2023/09/19 08:08:42;;;;;;;4.35;1.90;;;;;;;18.42;57.13;100468.25;7394710;19;20038;-69
2023/09/19 08:11:11;;;;;;;3.97;1.80;;;;;;;18.45;56.71;100476.03;7393389;19;20102;-68
2023/09/19 08:13:43;;;;;;;6.28;2.30;;;;;;;18.45;55.07;100478.69;7394140;19;20015;-69
2023/09/19 08:16:11;;;;;;;6.22;1.77;;;;;;;18.47;55.19;100474.16;7395839;19;20010;-69
2023/09/19 08:18:40;;;;;;;5.47;1.77;;;;;;;18.44;52.43;100483.16;7394674;19;20457;-69
2023/09/19 08:21:14;;;;;;;8.45;1.63;;;;;;;18.48;53.29;100476.72;7394925;19;20017;-69
2023/09/19 08:23:43;;;;;;;;;;;;;;;18.48;50.85;100486.50;7394179;19;20022;-69
2023/09/19 08:26:11;;;;;;;4.45;1.50;;;;;;;18.49;53.63;100482.91;7394436;19;19922;-68
2023/09/19 08:28:40;;;;;;;4.90;1.60;;;;;;;18.48;52.13;100475.88;7395101;19;20007;-68
2023/09/19 08:31:10;;;;;;;6.40;2.03;;;;;;;18.46;51.64;100485.72;7392985;19;20019;-69
2023/09/19 08:33:40;;;;;;;4.32;1.63;;;;;;;18.47;53.98;100468.84;7391718;19;20022;-69
2023/09/19 08:36:13;;;;;;;7.60;2.10;;;;;;;18.48;53.08;100473.22;7393987;19;20003;-69
2023/09/19 08:38:42;;;;;;;;;;;;;;;18.45;51.80;100465.41;7394436;19;20028;-69
2023/09/19 08:41:10;;;;;;;3.67;1.52;;;;;;;18.40;53.89;100466.53;7392259;19;19918;-70
2023/09/19 08:43:39;;;;;;;5.50;2.03;;;;;;;18.40;52.56;100473.66;7392172;19;20122;-70
2023/09/19 08:46:13;;;;;;;5.55;1.70;;;;;;;18.37;52.73;100474.69;7394069;19;20078;-69
2023/09/19 08:48:49;;;;;;;4.47;1.77;;;;;;;18.37;52.09;100474.69;7393743;19;20489;-69
2023/09/19 08:51:29;;;;;;;5.38;1.60;;;;;;;18.33;52.73;100470.50;7392564;19;20021;-69
2023/09/19 08:54:06;;;;;;;3.70;1.40;;;;;;;18.30;52.86;100470.69;7393039;19;20066;-70
2023/09/19 08:56:36;;;;;;;2.55;1.30;;;;;;;18.27;53.77;100480.63;7394138;19;20015;-68
2023/09/19 08:59:07;;;;;;;3.90;1.58;;;;;;;18.23;52.25;100487.91;7393555;19;20074;-69
2023/09/19 09:01:37;;;;;;;4.70;1.70;;;;;;;18.19;52.83;100499.66;7393046;19;20014;-69
2023/09/19 09:04:08;;;;;;;4.53;1.48;;;;;;;18.16;52.80;100499.81;7392271;19;20512;-69
2023/09/19 09:06:40;;;;;;;4.93;1.52;;;;;;;18.10;51.35;100498.38;7393388;19;20521;-70
2023/09/19 09:09:10;;;;;;;7.40;1.67;;;;;;;18.19;52.83;100507.63;7393367;19;20444;-69
2023/09/19 09:11:39;;;;;;;8.15;2.00;;;;;;;18.21;52.64;100503.06;7392443;19;20010;-70
2023/09/19 09:14:09;;;;;;;5.82;1.92;;;;;;;18.20;52.15;100510.19;7391980;19;20026;-67
2023/09/19 09:16:38;;;;;;;7.10;1.92;;;;;;;18.20;52.51;100510.19;7393438;19;20020;-69
2023/09/19 09:19:07;;;;;;;4.80;1.85;;;;;;;18.20;52.58;100514.66;7398697;19;20006;-67
2023/09/19 09:21:38;;;;;;;5.68;1.90;;;;;;;18.18;52.28;100527.16;7400734;19;20018;-68
2023/09/19 09:24:33;;;;;;;6.15;2.13;;;;;;;18.13;51.82;100514.13;7398025;19;20496;-70
2023/09/19 09:27:04;;;;;;;4.50;1.40;;;;;;;18.10;53.40;100514.31;7400207;19;20513;-69
2023/09/19 09:29:48;;;;;;;4.22;1.98;;;;;;;18.06;52.09;100500.34;7398484;19;20027;-70
2023/09/19 09:32:24;;;;;;;6.20;1.70;;;;;;;18.02;53.00;100501.47;7400105;19;20021;-69
2023/09/19 09:34:54;;;;;;;4.10;1.52;;;;;;;17.96;54.10;100499.19;7397412;19;20027;-69
2023/09/19 09:37:24;;;;;;;5.30;1.88;;;;;;;17.96;54.30;100508.91;7397485;19;20017;-70
2023/09/19 09:40:08;;;;;;;3.70;1.60;;;;;;;17.96;54.36;100506.25;7400021;19;20014;-68
2023/09/19 09:42:39;;;;;;;5.45;1.80;;;;;;;17.98;54.78;100521.16;7399849;19;20403;-69
2023/09/19 09:45:19;;;;;;;3.95;1.42;;;;;;;17.99;54.66;100516.72;7399852;19;20034;-70
2023/09/19 09:47:55;;;;;;;4.70;2.00;;;;;;;18.01;54.85;100522.81;7399383;19;20034;-70
2023/09/19 09:50:38;;;;;;;5.10;2.28;;;;;;;18.06;54.90;100524.25;7399148;19;20014;-70
2023/09/19 09:53:09;;;;;;;8.10;2.35;;;;;;;18.12;54.46;100519.53;7398840;19;20015;-70
2023/09/19 09:56:05;;;;;;;3.83;2.10;;;;;;;18.14;53.79;100520.31;7399379;19;20011;-70
2023/09/19 09:58:35;;;;;;;5.78;1.95;;;;;;;18.18;54.67;100524.50;7399934;19;20018;-70
2023/09/19 10:01:15;;;;;;;7.30;1.90;;;;;;;18.26;52.16;100532.91;7399572;19;20310;-69
2023/09/19 10:03:47;;;;;;;4.35;2.10;;;;;;;18.33;53.33;100520.94;7397916;19;20010;-69
2023/09/19 10:06:30;;;;;;;7.38;2.20;;;;;;;18.36;52.97;100539.38;7398188;19;20011;-69
2023/09/19 10:09:16;;;;;;;5.37;2.03;;;;;;;18.42;52.66;100534.66;7399664;19;20015;-70
2023/09/19 10:11:56;;;;;;;4.47;1.95;;;;;;;18.49;51.68;100538.69;7396625;19;20010;-69
2023/09/19 10:14:31;;;;;;;4.70;1.92;;;;;;;18.56;52.62;100538.22;7396543;19;20006;-70
2023/09/19 10:17:04;;;;;;;5.13;2.05;;;;;;;18.59;51.93;100542.50;7396489;19;20007;-69
2023/09/19 10:19:39;;;;;;;6.05;2.05;;;;;;;18.63;52.18;100532.56;7399285;19;20034;-68
2023/09/19 10:22:10;;;;;;;4.32;1.83;;;;;;;18.70;51.99;100529.44;7398147;19;20422;-69
2023/09/19 10:24:41;;;;;;;8.63;2.17;;;;;;;18.78;51.27;100533.41;7396398;19;20014;-68
2023/09/19 10:27:12;;;;;;;6.85;1.85;;;;;;;18.83;50.80;100544.63;7395773;19;20481;-67
2023/09/19 10:29:42;;;;;;;6.18;1.95;;;;;;;18.86;50.64;100532.00;7397020;19;20070;-68
2023/09/19 10:32:19;;;;;;;5.50;2.00;;;;;;;18.92;50.66;100540.59;7394892;19;20082;-68
2023/09/19 10:34:55;;;;;;;5.30;1.85;;;;;;;18.95;49.44;100529.81;7396096;19;20015;-68
2023/09/19 10:37:26;;;;;;;4.35;1.90;;;;;;;19.01;50.50;100540.91;7398211;19;20018;-68
2023/09/19 10:39:58;;;;;;;6.97;2.28;;;;;;;19.08;50.31;100548.50;7398605;19;20006;-67
2023/09/19 10:42:31;;;;;;;5.22;1.92;;;;;;;19.14;50.49;100532.19;7398402;19;20014;-68
2023/09/19 10:45:04;;;;;;;4.40;2.13;;;;;;;19.19;50.04;100538.09;7396952;19;20029;-68
2023/09/19 10:47:32;;;;;;;4.35;1.92;;;;;;;19.24;48.86;100533.34;7397828;19;20003;-69
2023/09/19 10:50:01;;;;;;;5.72;1.85;;;;;;;19.25;48.18;100531.53;7397507;19;20433;-69
2023/09/19 10:52:33;;;;;;;8.02;1.95;;;;;;;19.26;48.27;100546.53;7396534;19;20010;-68
2023/09/19 10:55:02;;;;;;;4.85;2.17;;;;;;;19.21;48.10;100525.56;7397781;19;20015;-68
2023/09/19 10:57:34;;;;;;;6.65;2.35;;;;;;;19.21;48.32;100515.75;7396935;19;20481;-69
2023/09/19 11:03:23;;;;;;;7.57;2.63;;;;;;;19.28;47.52;100513.56;7395073;19;20037;-68
2023/09/19 11:06:09;;;;;;;4.67;2.20;;;;;;;19.35;47.16;100514.91;7395914;19;20035;-68
2023/09/19 11:09:07;;;;;;;4.82;1.52;;;;;;;19.47;47.52;100521.25;7396398;19;20118;-67
2023/09/19 11:11:40;;;;;;;5.35;1.90;;;;;;;19.60;47.58;100510.72;7394998;19;20015;-67
2023/09/19 11:14:33;;;;;;;5.82;1.92;;;;;;;19.74;46.84;100520.47;7394550;19;20014;-67
2023/09/19 11:17:46;;;;;;;3.28;1.40;;;;;;;19.86;45.90;100534.84;7396700;19;20014;-70
2023/09/19 11:20:41;;;;;;;4.28;1.92;;;;;;;19.96;45.23;100513.81;7397001;19;20014;-69
2023/09/19 11:23:28;;;;;;;6.00;2.05;;;;;;;20.04;45.42;100532.78;7393656;19;20356;-69
2023/09/19 11:25:56;;;;;;;3.30;1.52;;;;;;;20.10;45.38;100523.56;7395009;19;20056;-69
2023/09/19 11:28:32;;;;;;;2.08;1.38;;;;;;;20.14;44.84;100522.38;7395476;19;20019;-68
2023/09/19 11:31:56;;;;;;;4.00;1.40;;;;;;;20.18;44.87;100523.88;7394833;19;20382;-69
2023/09/19 11:34:41;;;;;;;2.95;1.40;;;;;;;20.25;44.46;100535.00;7392902;19;20025;-67
2023/09/19 11:37:42;;;;;;;2.58;1.65;;;;;;;20.25;45.03;100514.53;7395304;19;20014;-70
2023/09/19 11:40:13;;;;;;;3.08;1.30;;;;;;;20.28;46.22;100521.47;7394719;19;20025;-71
2023/09/19 11:42:53;;;;;;;3.17;1.58;;;;;;;20.37;46.06;100520.00;7395305;19;20021;-70
2023/09/19 11:45:57;;;;;;;5.28;1.88;;;;;;;20.51;45.86;100522.63;7395298;19;20478;-71
2023/09/19 11:48:29;;;;;;;4.05;1.92;;;;;;;20.66;45.88;100516.25;7395652;19;20015;-71
2023/09/19 11:50:59;;;;;;;4.65;1.65;;;;;;;20.78;45.97;100521.75;7393115;19;20010;-71
2023/09/19 11:53:36;;;;;;;3.70;1.67;;;;;;;20.86;44.44;100531.88;7394920;19;20082;-69
2023/09/19 11:56:10;;;;;;;5.18;1.35;;;;;;;20.95;45.25;100528.56;7396178;19;20010;-69